| time (UTC) | temp F | wind direction | speed MPH | gust MPH | rain 1hr in | rain 24hr in | rain mn in | humidity % | barometer mb |
| 20260905193708 | 60 | 279 | 5.0 | 12.0 | 0.00 | 0.00 | 0.00 | 73 | 1023.5 |
| 20260905192708 | 60 | 284 | 6.0 | 11.0 | 0.00 | 0.00 | 0.00 | 72 | 1023.5 |
| 20260905191708 | 61 | 260 | 6.0 | 13.0 | 0.00 | 0.00 | 0.00 | 72 | 1023.3 |
| 20260905190708 | 61 | 238 | 9.0 | 14.0 | 0.00 | 0.00 | 0.00 | 71 | 1023.1 |
| 20260905185708 | 61 | 284 | 7.0 | 13.0 | 0.00 | 0.00 | 0.00 | 71 | 1023.0 |
| 20260905184708 | 62 | 272 | 7.0 | 11.0 | 0.00 | 0.00 | 0.00 | 70 | 1023.1 |
| 20260905183708 | 62 | 246 | 7.0 | 12.0 | 0.00 | 0.00 | 0.00 | 70 | 1023.0 |
| 20260905182708 | 62 | 245 | 7.0 | 12.0 | 0.00 | 0.00 | 0.00 | 69 | 1022.9 |
| 20260905181708 | 62 | 249 | 8.0 | 14.0 | 0.00 | 0.00 | 0.00 | 69 | 1022.8 |
| 20260905180708 | 62 | 248 | 8.0 | 11.0 | 0.00 | 0.00 | 0.00 | 69 | 1022.7 |
| 20260905175708 | 63 | 259 | 7.0 | 19.0 | 0.00 | 0.00 | 0.00 | 69 | 1022.6 |
| 20260905174708 | 63 | 238 | 4.0 | 9.0 | 0.00 | 0.00 | 0.00 | 70 | 1022.5 |
| 20260905173708 | 63 | 290 | 6.0 | 11.0 | 0.00 | 0.00 | 0.00 | 69 | 1022.4 |
| 20260905172708 | 63 | 273 | 6.0 | 10.0 | 0.00 | 0.01 | 0.00 | 68 | 1022.3 |
| 20260905171708 | 64 | 254 | 9.0 | 14.0 | 0.00 | 0.01 | 0.00 | 66 | 1022.1 |
| 20260905170708 | 64 | 278 | 9.0 | 15.0 | 0.00 | 0.01 | 0.00 | 66 | 1022.1 |
| 20260905165708 | 64 | 216 | 7.0 | 12.0 | 0.00 | 0.01 | 0.00 | 68 | 1022.0 |
| 20260905164708 | 64 | 260 | 9.0 | 15.0 | 0.00 | 0.01 | 0.00 | 68 | 1021.8 |
| 20260905163708 | 64 | 292 | 10.0 | 16.0 | 0.00 | 0.01 | 0.00 | 68 | 1021.8 |
| 20260905162708 | 64 | 229 | 12.0 | 17.0 | 0.00 | 0.06 | 0.00 | 67 | 1021.5 |
| 20260905161708 | 64 | 234 | 11.0 | 22.0 | 0.00 | 0.06 | 0.00 | 67 | 1021.4 |
| 20260905160708 | 64 | 273 | 12.0 | 18.0 | 0.00 | 0.06 | 0.00 | 67 | 1021.1 |
| 20260905155708 | 64 | 232 | 10.0 | 17.0 | 0.00 | 0.06 | 0.00 | 68 | 1021.0 |
| 20260905154708 | 64 | 222 | 9.0 | 14.0 | 0.00 | 0.06 | 0.00 | 68 | 1020.9 |
| 20260905153708 | 64 | 225 | 8.0 | 14.0 | 0.00 | 0.06 | 0.00 | 69 | 1020.9 |
| 20260905152708 | 64 | 246 | 10.0 | 19.0 | 0.00 | 0.24 | 0.00 | 69 | 1020.9 |
| 20260905151708 | 63 | 259 | 8.0 | 14.0 | 0.00 | 0.24 | 0.00 | 73 | 1020.8 |
| 20260905150708 | 64 | 244 | 7.0 | 13.0 | 0.00 | 0.24 | 0.00 | 71 | 1020.7 |
| 20260905145709 | 64 | 295 | 8.0 | 16.0 | 0.00 | 0.24 | 0.00 | 68 | 1020.4 |
| 20260905144709 | 65 | 225 | 8.0 | 17.0 | 0.00 | 0.24 | 0.00 | 67 | 1020.4 |
| 20260905143709 | 66 | 273 | 14.0 | 23.0 | 0.00 | 0.24 | 0.00 | 64 | 1020.3 |
| 20260905142709 | 66 | 224 | 13.0 | 26.0 | 0.00 | 0.24 | 0.00 | 64 | 1020.2 |
| 20260905141709 | 65 | 256 | 14.0 | 23.0 | 0.00 | 0.24 | 0.00 | 65 | 1020.2 |
| 20260905140709 | 65 | 236 | 11.0 | 21.0 | 0.00 | 0.24 | 0.00 | 67 | 1020.1 |
| 20260905135709 | 65 | 249 | 9.0 | 15.0 | 0.00 | 0.24 | 0.00 | 65 | 1020.0 |
| 20260905134709 | 66 | 217 | 11.0 | 18.0 | 0.00 | 0.24 | 0.00 | 65 | 1019.9 |
| 20260905133709 | 66 | 251 | 12.0 | 15.0 | 0.00 | 0.24 | 0.00 | 63 | 1019.9 |
| 20260905132709 | 66 | 244 | 11.0 | 15.0 | 0.00 | 0.24 | 0.00 | 65 | 1019.6 |
| 20260905131709 | 65 | 235 | 10.0 | 13.0 | 0.00 | 0.24 | 0.00 | 64 | 1019.6 |
| 20260905130709 | 66 | 224 | 12.0 | 18.0 | 0.00 | 0.24 | 0.00 | 63 | 1019.5 |
| 20260905125709 | 65 | 271 | 12.0 | 23.0 | 0.00 | 0.24 | 0.00 | 63 | 1019.5 |
| 20260905124709 | 65 | 234 | 10.0 | 14.0 | 0.00 | 0.24 | 0.00 | 64 | 1019.4 |
| 20260905123709 | 65 | 244 | 12.0 | 21.0 | 0.00 | 0.24 | 0.00 | 62 | 1019.2 |
| 20260905122709 | 66 | 266 | 9.0 | 12.0 | 0.00 | 0.24 | 0.00 | 64 | 1019.2 |
| 20260905121709 | 66 | 238 | 9.0 | 16.0 | 0.00 | 0.24 | 0.00 | 65 | 1019.2 |
| 20260905120709 | 65 | 248 | 10.0 | 14.0 | 0.00 | 0.24 | 0.00 | 64 | 1019.2 |
| 20260905115709 | 65 | 276 | 12.0 | 20.0 | 0.00 | 0.24 | 0.00 | 64 | 1019.2 |
| 20260905114709 | 65 | 255 | 10.0 | 20.0 | 0.00 | 0.24 | 0.00 | 64 | 1019.1 |
| 20260905113709 | 64 | 238 | 9.0 | 17.0 | 0.00 | 0.24 | 0.00 | 66 | 1019.3 |
| 20260905112709 | 64 | 274 | 11.0 | 19.0 | 0.00 | 0.24 | 0.00 | 65 | 1019.1 |
| 20260905111709 | 64 | 217 | 10.0 | 16.0 | 0.00 | 0.24 | 0.00 | 66 | 1019.2 |
| 20260905110709 | 65 | 276 | 9.0 | 17.0 | 0.00 | 0.24 | 0.00 | 65 | 1019.1 |
| 20260905105709 | 65 | 242 | 8.0 | 13.0 | 0.00 | 0.24 | 0.00 | 66 | 1019.0 |
| 20260905104709 | 64 | 242 | 11.0 | 17.0 | 0.00 | 0.24 | 0.00 | 67 | 1019.0 |
| 20260905103709 | 64 | 226 | 11.0 | 17.0 | 0.00 | 0.24 | 0.00 | 65 | 1018.9 |
| 20260905102709 | 64 | 217 | 9.0 | 20.0 | 0.00 | 0.24 | 0.00 | 67 | 1019.0 |
| 20260905101709 | 64 | 236 | 8.0 | 12.0 | 0.00 | 0.24 | 0.00 | 67 | 1018.9 |
| 20260905100709 | 65 | 230 | 10.0 | 15.0 | 0.00 | 0.24 | 0.00 | 65 | 1018.8 |
| 20260905095709 | 65 | 233 | 11.0 | 17.0 | 0.00 | 0.24 | 0.00 | 66 | 1018.8 |
| 20260905094709 | 64 | 230 | 12.0 | 19.0 | 0.00 | 0.24 | 0.00 | 68 | 1018.8 |
| 20260905093709 | 64 | 242 | 11.0 | 21.0 | 0.00 | 0.24 | 0.00 | 68 | 1018.7 |
| 20260905092709 | 64 | 246 | 12.0 | 19.0 | 0.00 | 0.24 | 0.00 | 69 | 1018.7 |
| 20260905091709 | 63 | 233 | 12.0 | 20.0 | 0.00 | 0.24 | 0.00 | 71 | 1018.7 |
| 20260905090709 | 63 | 259 | 10.0 | 17.0 | 0.00 | 0.24 | 0.00 | 73 | 1018.7 |
| 20260905085709 | 63 | 259 | 11.0 | 17.0 | 0.00 | 0.24 | 0.00 | 73 | 1018.6 |
| 20260905084709 | 63 | 250 | 11.0 | 18.0 | 0.00 | 0.24 | 0.00 | 74 | 1018.6 |
| 20260905083709 | 62 | 257 | 10.0 | 15.0 | 0.00 | 0.24 | 0.00 | 77 | 1018.5 |
| 20260905082709 | 62 | 257 | 9.0 | 15.0 | 0.00 | 0.24 | 0.00 | 78 | 1018.4 |
| 20260905081709 | 62 | 227 | 10.0 | 14.0 | 0.00 | 0.24 | 0.00 | 79 | 1018.4 |
| 20260905080709 | 61 | 234 | 8.0 | 16.0 | 0.00 | 0.24 | 0.00 | 80 | 1018.3 |
| 20260905075709 | 61 | 272 | 10.0 | 19.0 | 0.00 | 0.24 | 0.00 | 81 | 1018.2 |
| 20260905074709 | 60 | 246 | 8.0 | 15.0 | 0.00 | 0.24 | 0.00 | 82 | 1017.9 |
| 20260905073709 | 60 | 259 | 7.0 | 9.0 | 0.00 | 0.24 | 0.00 | 84 | 1017.8 |
| 20260905072710 | 59 | 234 | 8.0 | 13.0 | 0.00 | 0.24 | 0.00 | 84 | 1017.7 |
| 20260905071710 | 59 | 248 | 7.0 | 14.0 | 0.00 | 0.24 | 0.00 | 85 | 1017.7 |
| 20260905070710 | 58 | 279 | 7.0 | 13.0 | 0.00 | 0.24 | 0.00 | 86 | 1017.6 |
| 20260905065710 | 58 | 240 | 7.0 | 14.0 | 0.00 | 0.24 | 0.00 | 86 | 1017.6 |
| 20260905064710 | 57 | 265 | 6.0 | 12.0 | 0.00 | 0.24 | 0.00 | 87 | 1017.4 |
| 20260905063710 | 57 | 273 | 4.0 | 8.0 | 0.00 | 0.24 | 0.00 | 87 | 1017.4 |
| 20260905062710 | 56 | 289 | 4.0 | 8.0 | 0.00 | 0.24 | 0.00 | 87 | 1017.3 |
| 20260905061710 | 56 | 238 | 4.0 | 8.0 | 0.00 | 0.24 | 0.00 | 87 | 1017.3 |
| 20260905060710 | 56 | 232 | 2.0 | 7.0 | 0.00 | 0.24 | 0.00 | 87 | 1017.3 |
| 20260905055710 | 56 | 319 | 0.0 | 0.0 | 0.00 | 0.24 | 0.00 | 87 | 1017.3 |
| 20260905054710 | 56 | 328 | 0.0 | 2.0 | 0.00 | 0.24 | 0.00 | 87 | 1017.3 |
| 20260905053710 | 56 | 242 | 1.0 | 3.0 | 0.00 | 0.24 | 0.00 | 87 | 1017.1 |
| 20260905052710 | 56 | 271 | 2.0 | 6.0 | 0.00 | 0.24 | 0.00 | 87 | 1017.0 |
| 20260905051710 | 55 | 213 | 3.0 | 7.0 | 0.00 | 0.24 | 0.00 | 86 | 1016.9 |
| 20260905050710 | 55 | 218 | 1.0 | 3.0 | 0.00 | 0.24 | 0.00 | 86 | 1016.9 |
| 20260905045710 | 55 | 281 | 2.0 | 5.0 | 0.00 | 0.24 | 0.00 | 86 | 1016.9 |
| 20260905044710 | 55 | 223 | 1.0 | 7.0 | 0.00 | 0.24 | 0.00 | 86 | 1016.6 |
| 20260905043710 | 55 | 278 | 1.0 | 7.0 | 0.00 | 0.24 | 0.00 | 86 | 1016.5 |
| 20260905042710 | 55 | 286 | 0.0 | 1.0 | 0.00 | 0.24 | 0.00 | 86 | 1016.4 |
| 20260905041710 | 55 | 261 | 0.0 | 1.0 | 0.00 | 0.24 | 0.00 | 86 | 1016.4 |
| 20260905040710 | 55 | 263 | 1.0 | 4.0 | 0.00 | 0.24 | 0.00 | 86 | 1016.3 |
| 20260905035710 | 55 | 223 | 1.0 | 4.0 | 0.00 | 0.24 | 0.00 | 86 | 1016.4 |
| 20260905034710 | 55 | 234 | 0.0 | 3.0 | 0.00 | 0.24 | 0.00 | 86 | 1016.4 |
| 20260905033710 | 56 | 263 | 0.0 | 2.0 | 0.00 | 0.24 | 0.00 | 86 | 1016.2 |
| 20260905032710 | 56 | 263 | 0.0 | 3.0 | 0.00 | 0.24 | 0.00 | 86 | 1016.1 |
| 20260905031710 | 56 | 183 | 0.0 | 2.0 | 0.00 | 0.24 | 0.00 | 87 | 1015.9 |
| 20260905030710 | 56 | 292 | 0.0 | 3.0 | 0.00 | 0.24 | 0.00 | 87 | 1015.9 |
| 20260905025710 | 56 | 217 | 0.0 | 4.0 | 0.00 | 0.24 | 0.00 | 87 | 1015.8 |
| 20260905024710 | 57 | 232 | 1.0 | 3.0 | 0.00 | 0.24 | 0.00 | 87 | 1015.7 |
| 20260905023710 | 57 | 229 | 1.0 | 4.0 | 0.00 | 0.24 | 0.00 | 87 | 1015.7 |
| 20260905022710 | 57 | 236 | 2.0 | 8.0 | 0.00 | 0.24 | 0.00 | 86 | 1015.7 |
| 20260905021710 | 57 | 229 | 1.0 | 6.0 | 0.00 | 0.24 | 0.00 | 86 | 1015.8 |
| 20260905020710 | 57 | 236 | 2.0 | 5.0 | 0.00 | 0.24 | 0.00 | 86 | 1015.6 |
| 20260905015710 | 57 | 182 | 1.0 | 6.0 | 0.00 | 0.24 | 0.00 | 86 | 1015.6 |
| 20260905014710 | 57 | 224 | 1.0 | 5.0 | 0.00 | 0.24 | 0.00 | 86 | 1015.4 |
| 20260905013710 | 58 | 257 | 2.0 | 6.0 | 0.00 | 0.24 | 0.00 | 85 | 1015.3 |
| 20260905012710 | 58 | 229 | 3.0 | 5.0 | 0.00 | 0.24 | 0.00 | 85 | 1015.3 |
| 20260905011710 | 58 | 232 | 2.0 | 6.0 | 0.00 | 0.24 | 0.00 | 86 | 1015.4 |
| 20260905010710 | 57 | 230 | 0.0 | 5.0 | 0.00 | 0.24 | 0.00 | 85 | 1015.2 |
| 20260905005710 | 58 | 259 | 1.0 | 4.0 | 0.00 | 0.24 | 0.00 | 85 | 1015.2 |
| 20260905004710 | 58 | 254 | 3.0 | 6.0 | 0.00 | 0.24 | 0.00 | 84 | 1015.2 |
| 20260905003710 | 59 | 213 | 5.0 | 9.0 | 0.00 | 0.24 | 0.00 | 86 | 1015.2 |
| 20260905002710 | 59 | 215 | 5.0 | 10.0 | 0.00 | 0.24 | 0.00 | 84 | 1015.1 |
| 20260905001710 | 59 | 245 | 6.0 | 12.0 | 0.00 | 0.24 | 0.00 | 84 | 1015.1 |
| 20260905000710 | 59 | 227 | 5.0 | 10.0 | 0.00 | 0.24 | 0.00 | 84 | 1015.1 |
| 20260904235710 | 59 | 216 | 6.0 | 11.0 | 0.00 | 0.24 | 0.00 | 84 | 1014.9 |
| 20260904234710 | 59 | 270 | 8.0 | 15.0 | 0.00 | 0.24 | 0.00 | 84 | 1014.8 |
| 20260904233710 | 59 | 248 | 8.0 | 13.0 | 0.00 | 0.24 | 0.00 | 85 | 1014.7 |
| 20260904232710 | 59 | 254 | 7.0 | 13.0 | 0.00 | 0.24 | 0.00 | 85 | 1014.7 |
| 20260904231711 | 59 | 232 | 7.0 | 12.0 | 0.00 | 0.24 | 0.00 | 84 | 1014.6 |
| 20260904230710 | 60 | 242 | 7.0 | 12.0 | 0.00 | 0.24 | 0.00 | 84 | 1014.4 |
| 20260904225711 | 60 | 270 | 8.0 | 15.0 | 0.00 | 0.24 | 0.00 | 83 | 1014.5 |
| 20260904224711 | 60 | 273 | 9.0 | 17.0 | 0.00 | 0.24 | 0.00 | 84 | 1014.4 |
| 20260904223711 | 60 | 225 | 6.0 | 15.0 | 0.00 | 0.24 | 0.00 | 86 | 1014.4 |
| 20260904222711 | 60 | 236 | 2.0 | 6.0 | 0.00 | 0.24 | 0.00 | 86 | 1014.3 |
| 20260904221711 | 60 | 267 | 3.0 | 6.0 | 0.00 | 0.24 | 0.00 | 86 | 1014.0 |
| 20260904220711 | 60 | 226 | 5.0 | 14.0 | 0.00 | 0.24 | 0.24 | 86 | 1013.9 |
| 20260904215711 | 61 | 270 | 7.0 | 10.0 | 0.00 | 0.24 | 0.24 | 86 | 1013.7 |
| 20260904214711 | 61 | 259 | 7.0 | 16.0 | 0.00 | 0.24 | 0.24 | 86 | 1013.7 |
| 20260904213711 | 61 | 259 | 7.0 | 12.0 | 0.00 | 0.24 | 0.24 | 86 | 1013.5 |
| 20260904212711 | 61 | 259 | 6.0 | 11.0 | 0.00 | 0.24 | 0.24 | 86 | 1013.4 |
| 20260904211711 | 61 | 254 | 6.0 | 10.0 | 0.00 | 0.24 | 0.24 | 86 | 1013.3 |
| 20260904210711 | 61 | 228 | 7.0 | 13.0 | 0.00 | 0.24 | 0.24 | 86 | 1013.1 |
| 20260904205711 | 61 | 225 | 6.0 | 15.0 | 0.00 | 0.24 | 0.24 | 86 | 1012.9 |
| 20260904204711 | 61 | 240 | 7.0 | 11.0 | 0.00 | 0.24 | 0.24 | 86 | 1013.0 |
| 20260904203711 | 61 | 234 | 6.0 | 11.0 | 0.00 | 0.24 | 0.24 | 86 | 1012.7 |
| 20260904202711 | 61 | 222 | 6.0 | 11.0 | 0.00 | 0.24 | 0.24 | 86 | 1012.8 |
| 20260904201711 | 61 | 220 | 5.0 | 10.0 | 0.00 | 0.24 | 0.24 | 86 | 1012.4 |
| 20260904200711 | 61 | 228 | 6.0 | 11.0 | 0.00 | 0.24 | 0.24 | 86 | 1012.4 |
| 20260904195711 | 61 | 238 | 5.0 | 10.0 | 0.00 | 0.24 | 0.24 | 86 | 1012.6 |
| 20260904194711 | 61 | 226 | 6.0 | 9.0 | 0.00 | 0.24 | 0.24 | 86 | 1012.5 |